createdAt,value
2022-08-05T00:00:26.028Z,21.97
2022-08-05T00:02:54.129Z,21.85
2022-08-05T00:06:02.698Z,21.83
2022-08-05T00:08:34.919Z,21.78
2022-08-05T00:11:00.942Z,21.76
2022-08-05T00:13:38.703Z,21.73
2022-08-05T00:16:09.519Z,21.70
2022-08-05T00:18:42.214Z,21.70
2022-08-05T00:21:10.625Z,21.70
2022-08-05T00:23:46.489Z,21.73
2022-08-05T00:26:22.129Z,21.76
2022-08-05T00:28:52.249Z,21.75
2022-08-05T00:31:54.131Z,21.72
2022-08-05T00:34:54.424Z,21.68
2022-08-05T00:37:11.836Z,21.67
2022-08-05T00:39:44.196Z,21.64
2022-08-05T00:42:32.622Z,21.60
2022-08-05T00:45:02.322Z,21.57
2022-08-05T00:47:53.283Z,21.54
2022-08-05T00:50:18.490Z,21.52
2022-08-05T00:52:49.144Z,21.47
2022-08-05T00:55:17.248Z,21.46
2022-08-05T00:57:58.582Z,21.41
2022-08-05T01:00:29.888Z,21.38
2022-08-05T01:03:00.171Z,21.35
2022-08-05T01:05:28.929Z,21.33
2022-08-05T01:08:41.411Z,21.30
2022-08-05T01:10:52.454Z,21.27
2022-08-05T01:13:27.502Z,21.23
2022-08-05T01:16:26.485Z,21.20
2022-08-05T01:19:00.799Z,21.19
2022-08-05T01:22:02.539Z,21.17
2022-08-05T01:24:53.482Z,21.17
2022-08-05T01:27:36.299Z,21.18
2022-08-05T01:30:20.919Z,21.15
2022-08-05T01:33:08.406Z,21.12
2022-08-05T01:35:51.855Z,21.14
2022-08-05T01:38:26.884Z,21.13
2022-08-05T01:40:59.886Z,21.13
2022-08-05T01:43:30.644Z,21.13
2022-08-05T01:46:07.507Z,21.16
2022-08-05T01:48:46.148Z,21.16
2022-08-05T01:51:19.298Z,21.14
2022-08-05T01:53:57.571Z,21.04
2022-08-05T01:58:11.162Z,20.91
2022-08-05T01:59:22.855Z,20.80
2022-08-05T02:01:55.412Z,20.72
2022-08-05T02:04:25.539Z,20.60
2022-08-05T02:06:53.989Z,20.48
2022-08-05T02:09:22.114Z,20.38
2022-08-05T02:12:00.062Z,20.32
2022-08-05T02:14:32.009Z,20.26
2022-08-05T02:17:08.036Z,20.25
2022-08-05T02:19:50.708Z,20.24
2022-08-05T02:22:25.940Z,20.26
2022-08-05T02:25:02.891Z,20.24
2022-08-05T02:27:58.281Z,20.23
2022-08-05T02:30:23.597Z,20.24
2022-08-05T02:32:59.857Z,20.23
2022-08-05T02:35:33.170Z,20.21
2022-08-05T02:38:09.199Z,20.11
2022-08-05T02:40:38.556Z,20.07
2022-08-05T02:43:07.994Z,20.03
2022-08-05T02:45:51.889Z,19.98
2022-08-05T02:48:29.435Z,19.99
2022-08-05T02:51:01.007Z,20.00
2022-08-05T02:53:39.519Z,19.99
2022-08-05T02:56:15.682Z,19.99
2022-08-05T02:58:51.560Z,19.99
2022-08-05T03:01:27.126Z,19.99
2022-08-05T03:04:02.253Z,20.00
2022-08-05T03:06:55.445Z,20.02
2022-08-05T03:09:27.116Z,19.97
2022-08-05T03:12:24.481Z,19.96
2022-08-05T03:14:52.910Z,19.97
2022-08-05T03:17:20.849Z,19.98
2022-08-05T03:19:51.311Z,19.98
2022-08-05T03:22:19.220Z,19.95
2022-08-05T03:25:02.278Z,19.91
2022-08-05T03:27:59.228Z,19.91
2022-08-05T03:30:34.141Z,19.90
2022-08-05T03:33:03.051Z,19.87
2022-08-05T03:35:33.717Z,19.80
2022-08-05T03:38:02.623Z,19.73
2022-08-05T03:40:31.879Z,19.69
2022-08-05T03:43:16.060Z,19.60
2022-08-05T03:45:57.330Z,19.53
2022-08-05T03:48:27.474Z,19.50
2022-08-05T03:52:37.935Z,19.45
2022-08-05T03:55:50.219Z,19.42
2022-08-05T03:56:47.476Z,19.39
2022-08-05T03:59:20.999Z,19.35
2022-08-05T04:01:54.527Z,19.29
2022-08-05T04:04:28.978Z,19.23
2022-08-05T04:07:00.151Z,19.22
2022-08-05T04:09:29.347Z,19.22
2022-08-05T04:11:57.812Z,19.22
2022-08-05T04:14:30.265Z,19.23
2022-08-05T04:17:00.707Z,19.19
2022-08-05T04:19:29.182Z,19.15
2022-08-05T04:22:08.180Z,19.15
2022-08-05T04:24:44.403Z,19.16
2022-08-05T04:27:13.719Z,19.12
2022-08-05T04:29:41.656Z,19.13
2022-08-05T04:32:10.910Z,19.14
2022-08-05T04:34:42.956Z,19.15
2022-08-05T04:37:12.899Z,19.11
2022-08-05T04:39:40.842Z,19.08
2022-08-05T04:42:10.216Z,19.04
2022-08-05T04:44:39.041Z,19.01
2022-08-05T04:47:08.925Z,18.99
2022-08-05T04:50:02.113Z,18.99
2022-08-05T04:52:28.525Z,19.03
2022-08-05T04:54:57.781Z,19.03
2022-08-05T04:57:29.277Z,19.00
2022-08-05T04:59:58.947Z,18.94
2022-08-05T05:02:36.841Z,18.90
2022-08-05T05:05:16.518Z,18.87
2022-08-05T05:08:01.444Z,18.87
2022-08-05T05:10:30.456Z,18.88
2022-08-05T05:12:58.891Z,18.83
2022-08-05T05:15:56.451Z,18.78
2022-08-05T05:18:31.076Z,18.81
2022-08-05T05:21:03.265Z,18.80
2022-08-05T05:24:02.343Z,18.83
2022-08-05T05:26:28.689Z,18.84
2022-08-05T05:29:02.350Z,18.86
2022-08-05T05:34:02.624Z,18.89
2022-08-05T05:36:31.460Z,18.91
2022-08-05T05:39:03.575Z,18.94
2022-08-05T05:41:40.504Z,18.95
2022-08-05T05:44:35.525Z,18.96
2022-08-05T05:47:04.472Z,18.98
2022-08-05T05:49:41.319Z,19.02
2022-08-05T05:52:09.189Z,19.04
2022-08-05T05:54:50.575Z,19.07
2022-08-05T05:57:19.604Z,19.10
2022-08-05T05:59:48.771Z,19.12
2022-08-05T06:02:17.285Z,19.15
2022-08-05T06:05:01.376Z,19.18
2022-08-05T06:07:41.660Z,19.23
2022-08-05T06:10:12.144Z,19.23
2022-08-05T06:12:42.128Z,19.23
2022-08-05T06:15:16.187Z,19.28
2022-08-05T06:17:53.062Z,19.32
2022-08-05T06:20:23.201Z,19.38
2022-08-05T06:22:51.024Z,19.41
2022-08-05T06:25:59.251Z,19.43
2022-08-05T06:28:11.814Z,19.44
2022-08-05T06:30:48.852Z,19.47
2022-08-05T06:33:19.022Z,19.40
2022-08-05T06:36:07.803Z,19.35
2022-08-05T06:38:36.794Z,19.29
2022-08-05T06:41:08.114Z,19.29
2022-08-05T06:43:58.967Z,19.33
2022-08-05T06:46:30.418Z,19.37
2022-08-05T06:48:59.690Z,19.39
2022-08-05T06:51:31.087Z,19.43
2022-08-05T06:54:02.136Z,19.43
2022-08-05T06:56:34.397Z,19.44
2022-08-05T06:59:03.922Z,19.47
2022-08-05T07:01:36.901Z,19.52
2022-08-05T07:04:05.053Z,19.60
2022-08-05T07:06:32.960Z,19.67
2022-08-05T07:09:03.843Z,19.73
2022-08-05T07:11:36.930Z,19.81
2022-08-05T07:14:29.612Z,19.85
2022-08-05T07:17:59.044Z,19.89
2022-08-05T07:22:37.147Z,19.90
2022-08-05T07:25:22.547Z,19.93
2022-08-05T07:28:02.723Z,19.95
2022-08-05T07:30:38.987Z,20.02
2022-08-05T07:33:15.508Z,20.03
2022-08-05T07:36:03.258Z,20.01
2022-08-05T07:38:35.670Z,20.00
2022-08-05T07:42:09.231Z,20.06
2022-08-05T07:44:03.907Z,20.08
2022-08-05T07:46:33.650Z,20.12
2022-08-05T07:49:05.987Z,20.19
2022-08-05T07:51:40.546Z,20.18
2022-08-05T07:54:18.645Z,20.24
2022-08-05T07:57:01.197Z,20.34
2022-08-05T07:59:39.891Z,20.46
2022-08-05T08:02:15.315Z,20.52
2022-08-05T08:04:45.121Z,20.53
2022-08-05T08:07:13.542Z,20.56
2022-08-05T08:09:41.516Z,20.63
2022-08-05T08:12:19.890Z,20.69
2022-08-05T08:15:02.662Z,20.72
2022-08-05T08:17:32.242Z,20.69
2022-08-05T08:20:20.995Z,20.66
2022-08-05T08:22:52.883Z,20.70
2022-08-05T08:25:26.896Z,20.69
2022-08-05T08:28:04.154Z,20.83
2022-08-05T08:30:47.279Z,20.89
2022-08-05T08:33:15.683Z,20.99
2022-08-05T08:35:52.751Z,21.08
2022-08-05T08:38:35.574Z,21.08
2022-08-05T08:41:08.409Z,21.15
2022-08-05T08:45:21.242Z,21.19
2022-08-05T08:46:29.007Z,21.17
2022-08-05T08:49:07.982Z,21.22
2022-08-05T08:52:03.773Z,21.35
2022-08-05T08:54:36.497Z,21.46
2022-08-05T08:57:06.457Z,21.59
2022-08-05T08:59:41.829Z,21.66
2022-08-05T09:02:18.940Z,21.63
2022-08-05T09:05:16.525Z,21.66
2022-08-05T09:07:40.016Z,21.65
2022-08-05T09:10:27.749Z,21.72
2022-08-05T09:12:57.077Z,21.80
2022-08-05T09:15:37.102Z,21.95
2022-08-05T09:18:09.379Z,22.04
2022-08-05T09:20:38.380Z,22.14
2022-08-05T09:23:18.697Z,22.23
2022-08-05T09:26:03.193Z,22.39
2022-08-05T09:28:34.307Z,22.56
2022-08-05T09:31:18.136Z,22.72
2022-08-05T09:33:53.818Z,22.75
2022-08-05T09:36:27.948Z,22.84
2022-08-05T09:39:03.844Z,22.96
2022-08-05T09:41:58.494Z,23.15
2022-08-05T09:44:40.335Z,23.18
2022-08-05T09:47:15.589Z,23.25
2022-08-05T09:50:00.752Z,23.35
2022-08-05T09:52:32.290Z,23.37
2022-08-05T09:55:06.514Z,23.35
2022-08-05T09:57:49.811Z,23.34
2022-08-05T10:00:24.685Z,23.29
2022-08-05T10:02:54.815Z,23.19
2022-08-05T10:05:29.143Z,23.11
2022-08-05T10:08:34.948Z,23.07
2022-08-05T10:10:54.447Z,23.02
2022-08-05T10:13:46.311Z,22.99
2022-08-05T10:16:31.234Z,23.02
2022-08-05T10:19:01.205Z,23.05
2022-08-05T10:21:40.277Z,23.12
2022-08-05T10:24:11.137Z,23.16
2022-08-05T10:26:48.855Z,23.26
2022-08-05T10:29:23.894Z,23.38
2022-08-05T10:32:55.177Z,23.57
2022-08-05T10:35:00.826Z,23.69
2022-08-05T10:37:37.488Z,23.84
2022-08-05T10:40:28.101Z,23.87
2022-08-05T10:43:02.519Z,23.90
2022-08-05T10:45:41.594Z,23.92
2022-08-05T10:48:39.588Z,23.98
2022-08-05T10:51:29.047Z,23.99
2022-08-05T10:54:00.874Z,24.10
2022-08-05T10:56:31.983Z,24.15
2022-08-05T10:59:07.345Z,24.34
2022-08-05T11:01:55.180Z,24.46
2022-08-05T11:04:31.732Z,24.51
2022-08-05T11:07:08.081Z,24.62
2022-08-05T11:09:46.619Z,24.72
2022-08-05T11:12:50.484Z,24.79
2022-08-05T11:16:01.008Z,24.91
2022-08-05T11:18:26.599Z,25.00
2022-08-05T11:20:55.446Z,25.06
2022-08-05T11:23:33.321Z,25.13
2022-08-05T11:26:08.773Z,25.21
2022-08-05T11:28:48.397Z,25.23
2022-08-05T11:31:56.361Z,25.21
2022-08-05T11:34:18.056Z,25.26
2022-08-05T11:36:52.870Z,25.21
2022-08-05T11:39:55.560Z,25.13
2022-08-05T11:42:29.981Z,24.95
2022-08-05T11:45:05.340Z,24.39
2022-08-05T11:47:49.655Z,23.45
2022-08-05T11:50:18.344Z,22.48
2022-08-05T11:52:48.924Z,21.80
2022-08-05T11:55:17.496Z,21.30
2022-08-05T11:58:09.203Z,21.02
2022-08-05T12:00:38.096Z,20.85
2022-08-05T12:03:28.903Z,20.74
2022-08-05T12:06:03.118Z,20.70
2022-08-05T12:08:34.580Z,20.59
2022-08-05T12:11:10.094Z,20.59
2022-08-05T12:13:58.725Z,20.60
2022-08-05T12:16:29.471Z,20.60
2022-08-05T12:18:57.375Z,20.63
2022-08-05T12:21:29.948Z,20.62
2022-08-05T12:24:04.847Z,20.59
2022-08-05T12:26:34.095Z,20.53
2022-08-05T12:29:04.198Z,20.49
2022-08-05T12:31:46.226Z,20.44
2022-08-05T12:34:21.492Z,20.40
2022-08-05T12:36:53.479Z,20.30
2022-08-05T12:39:23.542Z,20.23
2022-08-05T12:41:59.359Z,20.16
2022-08-05T12:44:33.752Z,20.05
2022-08-05T12:47:03.679Z,19.91
2022-08-05T12:50:02.393Z,19.82
2022-08-05T12:52:37.994Z,19.65
2022-08-05T12:55:22.148Z,19.55
2022-08-05T12:58:52.742Z,19.44
2022-08-05T13:02:03.206Z,19.33
2022-08-05T13:03:41.343Z,19.22
2022-08-05T13:06:13.651Z,19.08
2022-08-05T13:08:41.683Z,19.04
2022-08-05T13:11:59.882Z,18.98
2022-08-05T13:14:20.082Z,18.94
2022-08-05T13:16:56.514Z,18.79
2022-08-05T13:19:26.166Z,18.64
2022-08-05T13:21:55.984Z,18.52
2022-08-05T13:24:27.613Z,18.43
2022-08-05T13:27:17.166Z,18.37
2022-08-05T13:30:35.220Z,18.31
2022-08-05T13:32:42.203Z,18.28
2022-08-05T13:35:15.155Z,18.29
2022-08-05T13:37:55.464Z,18.28
2022-08-05T13:40:36.994Z,18.28
2022-08-05T13:43:12.286Z,18.25
2022-08-05T13:45:43.318Z,18.26
2022-08-05T13:48:57.169Z,18.26
2022-08-05T13:51:06.569Z,18.23
2022-08-05T13:53:35.130Z,18.21
2022-08-05T13:56:18.927Z,18.18
2022-08-05T13:58:53.269Z,18.16
2022-08-05T14:01:27.390Z,18.14
2022-08-05T14:04:26.683Z,18.13
2022-08-05T14:06:58.735Z,18.13
2022-08-05T14:09:46.463Z,18.15
2022-08-05T14:12:17.376Z,18.17
2022-08-05T14:14:45.906Z,18.25
2022-08-05T14:17:17.769Z,18.29
2022-08-05T14:19:55.417Z,18.31
2022-08-05T14:22:25.021Z,18.30
2022-08-05T14:24:58.666Z,18.29
2022-08-05T14:27:28.409Z,18.29
2022-08-05T14:29:56.474Z,18.31
2022-08-05T14:32:27.992Z,18.36
2022-08-05T14:34:57.676Z,18.37
2022-08-05T14:37:45.664Z,18.39
2022-08-05T14:40:16.935Z,18.35
2022-08-05T14:42:45.387Z,18.40
2022-08-05T14:45:13.377Z,18.46
2022-08-05T14:48:03.416Z,18.49
2022-08-05T14:50:32.417Z,18.54
2022-08-05T14:53:00.750Z,18.58
2022-08-05T14:55:39.342Z,18.57
2022-08-05T14:58:11.691Z,18.56
2022-08-05T15:00:59.779Z,18.56
2022-08-05T15:03:33.023Z,18.54
2022-08-05T15:06:13.041Z,18.49
2022-08-05T15:08:59.449Z,18.49
2022-08-05T15:11:52.527Z,18.53
2022-08-05T15:14:35.066Z,18.53
2022-08-05T15:17:09.844Z,18.56
2022-08-05T15:19:57.082Z,18.58
2022-08-05T15:22:28.116Z,18.59
2022-08-05T15:24:56.669Z,18.63
2022-08-05T15:27:25.682Z,18.68
2022-08-05T15:29:54.294Z,18.73
2022-08-05T15:32:27.176Z,18.76
2022-08-05T15:34:56.836Z,18.82
2022-08-05T15:38:35.003Z,18.91
2022-08-05T15:40:59.157Z,18.96
2022-08-05T15:43:10.804Z,19.09
2022-08-05T15:45:45.627Z,19.21
2022-08-05T15:48:14.996Z,19.50
2022-08-05T15:50:45.586Z,19.77
2022-08-05T15:53:15.560Z,20.12
2022-08-05T15:56:02.299Z,20.47
2022-08-05T15:58:35.437Z,20.64
2022-08-05T16:01:16.033Z,20.67
2022-08-05T16:03:48.548Z,20.67
2022-08-05T16:06:19.881Z,20.61
2022-08-05T16:08:53.547Z,20.68
2022-08-05T16:11:43.004Z,20.85
2022-08-05T16:14:09.801Z,21.11
2022-08-05T16:16:37.665Z,21.25
2022-08-05T16:19:06.499Z,21.39
2022-08-05T16:22:00.776Z,21.55
2022-08-05T16:24:41.655Z,21.66
2022-08-05T16:27:16.163Z,21.51
2022-08-05T16:29:50.329Z,21.48
2022-08-05T16:32:28.797Z,21.45
2022-08-05T16:34:58.935Z,21.44
2022-08-05T16:38:02.620Z,21.36
2022-08-05T16:40:26.669Z,21.29
2022-08-05T16:42:57.477Z,21.11
2022-08-05T16:46:06.703Z,21.08
2022-08-05T16:48:25.183Z,21.00
2022-08-05T16:50:54.609Z,20.81
2022-08-05T16:53:32.343Z,20.74
2022-08-05T16:56:02.156Z,20.66
2022-08-05T16:58:30.180Z,20.62
2022-08-05T17:00:58.087Z,20.54
2022-08-05T17:03:27.168Z,20.45
2022-08-05T17:05:59.704Z,20.40
2022-08-05T17:08:36.189Z,20.36
2022-08-05T17:11:17.540Z,20.29
2022-08-05T17:13:45.596Z,20.24
2022-08-05T17:16:33.018Z,20.21
2022-08-05T17:19:01.868Z,20.15
2022-08-05T17:21:35.816Z,20.17
2022-08-05T17:24:18.498Z,20.14
2022-08-05T17:26:55.522Z,20.11
2022-08-05T17:29:33.523Z,20.09
2022-08-05T17:32:11.412Z,20.08
2022-08-05T17:34:44.851Z,20.07
2022-08-05T17:37:39.779Z,20.01
2022-08-05T17:40:04.634Z,19.97
2022-08-05T17:42:41.671Z,19.91
2022-08-05T17:45:17.810Z,19.85
2022-08-05T17:47:53.444Z,19.83
2022-08-05T17:50:29.513Z,19.79
2022-08-05T17:53:02.322Z,19.73
2022-08-05T17:55:34.345Z,19.70
2022-08-05T17:58:12.427Z,19.67
2022-08-05T18:00:45.395Z,19.63
2022-08-05T18:03:33.233Z,19.56
2022-08-05T18:06:11.232Z,19.52
2022-08-05T18:08:45.024Z,19.48
2022-08-05T18:11:24.534Z,19.46
2022-08-05T18:14:04.205Z,19.44
2022-08-05T18:16:33.634Z,19.41
2022-08-05T18:19:01.681Z,19.38
2022-08-05T18:22:08.736Z,19.35
2022-08-05T18:24:17.674Z,19.29
2022-08-05T18:26:45.542Z,19.27
2022-08-05T18:29:17.355Z,19.25
2022-08-05T18:32:00.814Z,19.21
2022-08-05T18:34:40.752Z,19.20
2022-08-05T18:37:12.192Z,19.14
2022-08-05T18:40:31.676Z,19.06
2022-08-05T18:42:28.772Z,18.95
2022-08-05T18:44:58.158Z,18.84
2022-08-05T18:47:28.066Z,18.75
2022-08-05T18:50:16.354Z,18.67
2022-08-05T18:52:51.164Z,18.59
2022-08-05T18:55:21.703Z,18.54
2022-08-05T18:57:54.079Z,18.49
2022-08-05T19:00:34.761Z,18.44
2022-08-05T19:03:04.069Z,18.35
2022-08-05T19:06:12.179Z,18.33
2022-08-05T19:08:30.431Z,18.28
2022-08-05T19:10:59.720Z,18.23
2022-08-05T19:13:35.624Z,18.18
2022-08-05T19:16:25.235Z,18.14
2022-08-05T19:18:56.728Z,18.09
2022-08-05T19:21:27.427Z,18.03
2022-08-05T19:24:07.774Z,18.00
2022-08-05T19:26:54.889Z,17.98
2022-08-05T19:29:26.544Z,17.96
2022-08-05T19:32:08.630Z,17.95
2022-08-05T19:34:39.685Z,17.92
2022-08-05T19:37:09.913Z,17.91
2022-08-05T19:39:45.628Z,17.86
2022-08-05T19:42:19.163Z,17.85
2022-08-05T19:45:05.957Z,17.83
2022-08-05T19:47:37.524Z,17.82
2022-08-05T19:50:07.893Z,17.83
2022-08-05T19:52:40.195Z,17.84
2022-08-05T19:56:15.163Z,17.83
2022-08-05T19:58:14.508Z,17.85
2022-08-05T20:00:45.211Z,17.88
2022-08-05T20:03:14.644Z,17.91
2022-08-05T20:05:50.177Z,17.90
2022-08-05T20:08:18.515Z,17.89
2022-08-05T20:10:49.375Z,17.91
2022-08-05T20:13:18.213Z,17.92
2022-08-05T20:15:59.637Z,17.91
2022-08-05T20:18:33.375Z,17.86
2022-08-05T20:21:05.073Z,17.84
2022-08-05T20:23:40.342Z,17.80
2022-08-05T20:26:20.217Z,17.77
2022-08-05T20:28:50.812Z,17.74
2022-08-05T20:31:21.753Z,17.70
2022-08-05T20:33:57.675Z,17.66
2022-08-05T20:36:25.877Z,17.62
2022-08-05T20:38:57.974Z,17.57
2022-08-05T20:41:43.452Z,17.50
2022-08-05T20:44:17.138Z,17.38
2022-08-05T20:46:46.259Z,17.27
2022-08-05T20:49:24.050Z,17.16
2022-08-05T20:51:54.090Z,17.03
2022-08-05T20:54:22.354Z,16.95
2022-08-05T20:56:50.225Z,16.87
2022-08-05T20:59:26.295Z,16.82
2022-08-05T21:01:56.471Z,16.80
2022-08-05T21:04:27.484Z,16.79
2022-08-05T21:06:55.840Z,16.75
2022-08-05T21:09:23.812Z,16.71
2022-08-05T21:12:06.782Z,16.63
2022-08-05T21:14:39.590Z,16.52
2022-08-05T21:17:07.520Z,16.46
2022-08-05T21:19:47.629Z,16.41
2022-08-05T21:22:21.823Z,16.36
2022-08-05T21:24:52.359Z,16.34
2022-08-05T21:27:27.134Z,16.32
2022-08-05T21:29:56.251Z,16.29
2022-08-05T21:32:26.777Z,16.27
2022-08-05T21:35:17.629Z,16.22
2022-08-05T21:37:47.349Z,16.16
2022-08-05T21:40:21.672Z,16.13
2022-08-05T21:42:51.844Z,16.09
2022-08-05T21:45:24.891Z,16.06
2022-08-05T21:48:09.327Z,16.02
2022-08-05T21:50:38.721Z,16.00
2022-08-05T21:53:16.276Z,15.98
2022-08-05T21:56:06.440Z,15.92
2022-08-05T21:58:34.075Z,15.90
2022-08-05T22:01:05.932Z,15.84
2022-08-05T22:06:39.755Z,15.66
2022-08-05T22:09:13.627Z,15.62
2022-08-05T22:11:46.839Z,15.56
2022-08-05T22:14:34.553Z,15.45
2022-08-05T22:17:06.730Z,15.33
2022-08-05T22:20:00.723Z,15.20
2022-08-05T22:22:27.946Z,15.07
2022-08-05T22:25:21.055Z,14.97
2022-08-05T22:28:11.079Z,14.87
2022-08-05T22:30:44.064Z,14.82
2022-08-05T22:33:55.587Z,14.75
2022-08-05T22:36:15.178Z,14.68
2022-08-05T22:38:48.125Z,14.61
2022-08-05T22:41:26.436Z,14.53
2022-08-05T22:44:06.168Z,14.44
2022-08-05T22:46:34.004Z,14.35
2022-08-05T22:49:23.418Z,14.28
2022-08-05T22:52:06.445Z,14.21
2022-08-05T22:54:37.910Z,14.15
2022-08-05T22:57:08.574Z,14.11
2022-08-05T22:59:45.331Z,14.05
2022-08-05T23:02:17.385Z,14.00
2022-08-05T23:04:51.632Z,13.95
2022-08-05T23:07:21.946Z,13.88
2022-08-05T23:09:57.251Z,13.81
2022-08-05T23:12:32.576Z,13.74
2022-08-05T23:15:03.353Z,13.69
2022-08-05T23:17:37.678Z,13.63
2022-08-05T23:20:20.577Z,13.56
2022-08-05T23:22:55.993Z,13.50
2022-08-05T23:25:51.589Z,13.46
2022-08-05T23:28:15.962Z,13.43
2022-08-05T23:30:53.556Z,13.41
2022-08-05T23:34:02.953Z,13.38
2022-08-05T23:36:13.667Z,13.35
2022-08-05T23:38:42.836Z,13.31
2022-08-05T23:41:12.952Z,13.25
2022-08-05T23:44:05.855Z,13.20
2022-08-05T23:46:29.650Z,13.14
2022-08-05T23:49:00.213Z,13.10
2022-08-05T23:51:53.755Z,13.04
2022-08-05T23:54:25.230Z,13.01
2022-08-05T23:57:03.120Z,12.99
